SKLC

Details ICAO SKLC
Name ANTONIO ROLDAN BETANCOURT
Region Colombia
Timezone America/Bogota (UTC-5.0)
Plans Departing 6
Arriving 9
Stats Elevation 46 ft / 14 m (AMSL)
Location 7.811956° -76.716426°
Runways 1
Magnetic Variation 6.038° W
Sunrise 2017-12-14 11:12:53 UTC / 2017-12-14 06:12:53 Local
Sunset 2017-12-14 22:53:12 UTC / 2017-12-14 17:53:12 Local
Advertisement - Login to hide

Runways

ID Width Length Bearing (true) Bearing (mag) Surface Threshold Offset Overrun Length
15 98 ft / 30 m 7,185 ft / 2,190 m 149.70° 155.74° Asphalt 0 ft / 0 m 197 ft / 60 m
33 98 ft / 30 m 7,185 ft / 2,190 m 329.71° 335.75° Asphalt 0 ft / 0 m 0 ft / 0 m

Map

Weather


0- 5 10 15 20 25 30 35+ Temperature / ° C

Clouds and Precipitation
Forecast for 2017-12-14 18:00 UTC. Updated 2 hours ago

Ground ~20,000 ft ~40,000 ft Winds

METAR

SKLC 141500Z 33014KT 9999 SCT025 28/24 A2986

TAF

Not found

Frequencies

Tower 118.70 MHz TWR
Warning: Do not use this data for real-world aviation or navigation. No guarantee of current accuracy is given.